createdAt,value
2022-10-23T00:04:47.215Z,13.90
2022-10-23T00:14:50.250Z,13.83
2022-10-23T00:24:54.820Z,13.32
2022-10-23T00:34:57.887Z,13.45
2022-10-23T00:45:20.047Z,13.39
2022-10-23T00:55:24.436Z,13.34
2022-10-23T01:05:33.376Z,13.07
2022-10-23T01:15:39.315Z,13.32
2022-10-23T01:26:02.954Z,13.53
2022-10-23T01:36:09.965Z,12.88
2022-10-23T01:46:14.984Z,13.39
2022-10-23T01:56:23.235Z,13.27
2022-10-23T02:06:26.443Z,13.34
2022-10-23T02:16:36.860Z,12.94
2022-10-23T02:26:41.429Z,13.09
2022-10-23T02:36:46.127Z,13.04
2022-10-23T02:46:52.884Z,12.82
2022-10-23T02:57:05.761Z,12.51
2022-10-23T03:07:12.008Z,12.32
2022-10-23T03:17:16.475Z,12.25
2022-10-23T03:27:19.640Z,12.03
2022-10-23T03:37:24.309Z,11.61
2022-10-23T03:47:27.625Z,11.48
2022-10-23T03:57:32.164Z,11.32
2022-10-23T04:07:35.240Z,11.08
2022-10-23T04:17:39.717Z,11.05
2022-10-23T04:27:43.155Z,10.89
2022-10-23T04:37:47.922Z,10.62
2022-10-23T04:47:53.359Z,10.31
2022-10-23T04:57:57.806Z,10.04
2022-10-23T05:08:01.339Z,10.31
2022-10-23T05:18:10.426Z,10.39
2022-10-23T05:28:13.517Z,10.36
2022-10-23T05:38:18.129Z,10.37
2022-10-23T05:48:34.286Z,10.45
2022-10-23T05:58:39.585Z,10.76
2022-10-23T06:08:42.836Z,10.93
2022-10-23T06:18:47.881Z,10.98
2022-10-23T06:28:50.908Z,11.31
2022-10-23T06:38:56.574Z,11.60
2022-10-23T06:48:59.809Z,11.86
2022-10-23T06:59:07.608Z,12.19
2022-10-23T07:09:11.022Z,12.05
2022-10-23T07:19:15.508Z,12.59
2022-10-23T07:29:18.609Z,12.96
2022-10-23T07:39:23.112Z,13.27
2022-10-23T07:49:26.357Z,12.83
2022-10-23T07:59:33.445Z,12.56
2022-10-23T08:09:40.146Z,13.47
2022-10-23T08:19:46.480Z,14.05
2022-10-23T08:29:49.636Z,13.97
2022-10-23T08:39:54.882Z,14.24
2022-10-23T08:50:00.933Z,14.33
2022-10-23T09:00:08.253Z,13.81
2022-10-23T09:10:38.099Z,14.10
2022-10-23T09:20:43.997Z,15.16
2022-10-23T09:30:47.134Z,15.37
2022-10-23T09:40:51.555Z,14.70
2022-10-23T09:50:56.550Z,15.58
2022-10-23T10:01:01.208Z,15.56
2022-10-23T10:11:09.057Z,16.12
2022-10-23T10:21:18.306Z,16.11
2022-10-23T10:31:26.044Z,16.47
2022-10-23T10:41:49.232Z,16.92
2022-10-23T10:51:59.947Z,18.13
2022-10-23T11:02:13.734Z,18.57
2022-10-23T11:12:19.780Z,19.52
2022-10-23T11:22:28.135Z,19.52
2022-10-23T11:32:47.416Z,20.15
2022-10-23T11:42:52.514Z,20.03
2022-10-23T11:53:14.596Z,20.08
2022-10-23T12:03:24.424Z,20.58
2022-10-23T12:13:31.762Z,20.82
2022-10-23T12:24:05.702Z,20.31
2022-10-23T12:34:15.975Z,20.59
2022-10-23T12:44:22.925Z,20.88
2022-10-23T12:54:26.248Z,20.81
2022-10-23T13:04:32.743Z,20.85
2022-10-23T13:14:40.674Z,20.57
2022-10-23T13:24:48.316Z,20.55
2022-10-23T13:35:03.717Z,20.44
2022-10-23T13:45:20.469Z,20.26
2022-10-23T13:55:25.412Z,20.16
2022-10-23T14:05:29.973Z,19.96
2022-10-23T14:15:33.203Z,19.92
2022-10-23T14:25:37.779Z,19.90
2022-10-23T14:35:40.982Z,20.05
2022-10-23T14:45:45.618Z,19.78
2022-10-23T14:55:48.932Z,19.79
2022-10-23T15:05:53.531Z,19.65
2022-10-23T15:16:04.775Z,19.82
2022-10-23T15:26:10.708Z,19.51
2022-10-23T15:36:13.894Z,19.26
2022-10-23T15:46:18.846Z,19.30
2022-10-23T15:56:22.207Z,19.24
2022-10-23T16:06:26.870Z,19.12
2022-10-23T16:16:30.364Z,19.01
2022-10-23T16:26:35.486Z,19.04
2022-10-23T16:36:39.514Z,18.94
2022-10-23T16:46:43.985Z,18.93
2022-10-23T16:56:50.429Z,18.79
2022-10-23T17:06:55.209Z,18.49
2022-10-23T17:17:01.106Z,18.68
2022-10-23T17:27:05.818Z,18.68
2022-10-23T17:37:10.201Z,18.41
2022-10-23T17:47:16.054Z,18.51
2022-10-23T17:57:19.793Z,18.43
2022-10-23T18:07:26.582Z,18.38
2022-10-23T18:17:30.402Z,18.16
2022-10-23T18:27:35.791Z,18.27
2022-10-23T18:37:41.569Z,18.29
2022-10-23T18:47:46.654Z,18.27
2022-10-23T18:57:50.059Z,18.18
2022-10-23T19:07:55.775Z,18.10
2022-10-23T19:17:59.702Z,18.23
2022-10-23T19:28:05.138Z,18.26
2022-10-23T19:38:08.645Z,18.20
2022-10-23T19:48:13.399Z,18.30
2022-10-23T19:58:19.660Z,18.32
2022-10-23T20:08:31.321Z,18.31
2022-10-23T20:18:38.572Z,18.47
2022-10-23T20:28:44.329Z,18.34
2022-10-23T20:38:47.539Z,18.24
2022-10-23T20:48:53.041Z,18.33
2022-10-23T20:58:56.103Z,18.24
2022-10-23T21:09:04.905Z,18.03
2022-10-23T21:19:08.906Z,17.95
2022-10-23T21:29:18.589Z,17.79
2022-10-23T21:39:21.956Z,17.60
2022-10-23T21:49:26.334Z,17.62
2022-10-23T21:59:30.362Z,17.66
2022-10-23T22:09:37.572Z,17.66
2022-10-23T22:19:40.702Z,17.66
2022-10-23T22:29:45.195Z,17.73
2022-10-23T22:39:51.876Z,17.69
2022-10-23T22:49:56.461Z,17.56
2022-10-23T22:59:59.526Z,17.66
2022-10-23T23:10:04.663Z,17.67
2022-10-23T23:20:08.770Z,17.32
2022-10-23T23:30:13.683Z,17.51
2022-10-23T23:40:16.813Z,17.17
2022-10-23T23:50:21.814Z,17.66
